sensor_id;sensor_type;location;lat;lon;timestamp;pressure;altitude;pressure_sealevel;temperature;humidity
77662;BME280;69666;52.136;5.424;2024-01-15T00:00:27;100383.16;;;0.65;100.00
77662;BME280;69666;52.136;5.424;2024-01-15T00:02:57;100383.66;;;0.61;100.00
77662;BME280;69666;52.136;5.424;2024-01-15T00:05:26;100373.69;;;0.55;100.00
77662;BME280;69666;52.136;5.424;2024-01-15T00:07:56;100377.50;;;0.52;100.00
77662;BME280;69666;52.136;5.424;2024-01-15T00:10:25;100370.72;;;0.50;100.00
77662;BME280;69666;52.136;5.424;2024-01-15T00:12:55;100374.69;;;0.46;100.00
77662;BME280;69666;52.136;5.424;2024-01-15T00:15:24;100372.19;;;0.44;100.00
77662;BME280;69666;52.136;5.424;2024-01-15T00:17:56;100371.03;;;0.39;100.00
77662;BME280;69666;52.136;5.424;2024-01-15T00:20:26;100369.19;;;0.39;100.00
77662;BME280;69666;52.136;5.424;2024-01-15T00:22:58;100367.53;;;0.38;100.00
77662;BME280;69666;52.136;5.424;2024-01-15T00:25:27;100357.44;;;0.33;100.00
77662;BME280;69666;52.136;5.424;2024-01-15T00:27:57;100345.84;;;0.35;100.00
77662;BME280;69666;52.136;5.424;2024-01-15T00:30:26;100347.81;;;0.32;100.00
77662;BME280;69666;52.136;5.424;2024-01-15T00:32:56;100357.06;;;0.28;100.00
77662;BME280;69666;52.136;5.424;2024-01-15T00:35:25;100349.13;;;0.28;100.00
77662;BME280;69666;52.136;5.424;2024-01-15T00:37:55;100349.78;;;0.30;100.00
77662;BME280;69666;52.136;5.424;2024-01-15T00:40:25;100338.69;;;0.27;100.00
77662;BME280;69666;52.136;5.424;2024-01-15T00:42:54;100344.31;;;0.24;100.00
77662;BME280;69666;52.136;5.424;2024-01-15T00:45:23;100341.81;;;0.22;100.00
77662;BME280;69666;52.136;5.424;2024-01-15T00:47:53;100333.19;;;0.20;100.00
77662;BME280;69666;52.136;5.424;2024-01-15T00:50:25;100328.91;;;0.19;100.00
77662;BME280;69666;52.136;5.424;2024-01-15T00:52:54;100330.88;;;0.17;100.00
77662;BME280;69666;52.136;5.424;2024-01-15T00:55:23;100319.75;;;0.14;100.00
77662;BME280;69666;52.136;5.424;2024-01-15T00:57:53;100322.41;;;0.14;100.00
77662;BME280;69666;52.136;5.424;2024-01-15T01:00:22;100325.22;;;0.12;100.00
77662;BME280;69666;52.136;5.424;2024-01-15T01:02:52;100325.53;;;0.09;100.00
77662;BME280;69666;52.136;5.424;2024-01-15T01:05:21;100324.03;;;0.07;100.00
77662;BME280;69666;52.136;5.424;2024-01-15T01:07:51;100314.59;;;0.04;100.00
77662;BME280;69666;52.136;5.424;2024-01-15T01:10:21;100318.59;;;0.00;100.00
77662;BME280;69666;52.136;5.424;2024-01-15T01:12:50;100315.25;;;-0.02;100.00
77662;BME280;69666;52.136;5.424;2024-01-15T01:15:20;100310.28;;;-0.05;100.00
77662;BME280;69666;52.136;5.424;2024-01-15T01:17:49;100308.94;;;-0.09;100.00
77662;BME280;69666;52.136;5.424;2024-01-15T01:20:19;100306.31;;;-0.09;100.00
77662;BME280;69666;52.136;5.424;2024-01-15T01:22:48;100296.84;;;-0.12;100.00
77662;BME280;69666;52.136;5.424;2024-01-15T01:25:18;100308.28;;;-0.11;100.00
77662;BME280;69666;52.136;5.424;2024-01-15T01:27:47;100309.25;;;-0.12;100.00
77662;BME280;69666;52.136;5.424;2024-01-15T01:30:17;100310.25;;;-0.13;100.00
77662;BME280;69666;52.136;5.424;2024-01-15T01:32:46;100315.53;;;-0.13;100.00
77662;BME280;69666;52.136;5.424;2024-01-15T01:35:16;100318.19;;;-0.13;100.00
77662;BME280;69666;52.136;5.424;2024-01-15T01:37:46;100319.19;;;-0.14;100.00
77662;BME280;69666;52.136;5.424;2024-01-15T01:40:15;100318.34;;;-0.15;100.00
77662;BME280;69666;52.136;5.424;2024-01-15T01:42:44;100316.69;;;-0.16;100.00
77662;BME280;69666;52.136;5.424;2024-01-15T01:45:14;100315.19;;;-0.18;100.00
77662;BME280;69666;52.136;5.424;2024-01-15T01:47:44;100308.25;;;-0.19;100.00
77662;BME280;69666;52.136;5.424;2024-01-15T01:50:14;100309.22;;;-0.20;100.00
77662;BME280;69666;52.136;5.424;2024-01-15T01:52:44;100304.09;;;-0.22;100.00
77662;BME280;69666;52.136;5.424;2024-01-15T01:55:14;100300.78;;;-0.24;100.00
77662;BME280;69666;52.136;5.424;2024-01-15T01:57:44;100301.09;;;-0.27;100.00
77662;BME280;69666;52.136;5.424;2024-01-15T02:00:14;100303.88;;;-0.28;100.00
77662;BME280;69666;52.136;5.424;2024-01-15T02:02:45;100302.38;;;-0.31;100.00
77662;BME280;69666;52.136;5.424;2024-01-15T02:05:19;100305.19;;;-0.32;100.00
77662;BME280;69666;52.136;5.424;2024-01-15T02:07:50;100303.69;;;-0.35;100.00
77662;BME280;69666;52.136;5.424;2024-01-15T02:10:19;100317.44;;;-0.31;100.00
77662;BME280;69666;52.136;5.424;2024-01-15T02:12:49;100326.72;;;-0.27;100.00
77662;BME280;69666;52.136;5.424;2024-01-15T02:15:19;100341.81;;;-0.20;100.00
77662;BME280;69666;52.136;5.424;2024-01-15T02:18:00;100338.38;;;-0.12;100.00
77662;BME280;69666;52.136;5.424;2024-01-15T02:20:32;100335.78;;;-0.04;100.00
77662;BME280;69666;52.136;5.424;2024-01-15T02:23:12;100320.41;;;0.08;100.00
77662;BME280;69666;52.136;5.424;2024-01-15T02:25:46;100320.28;;;0.17;100.00
77662;BME280;69666;52.136;5.424;2024-01-15T02:28:17;100317.00;;;0.23;100.00
77662;BME280;69666;52.136;5.424;2024-01-15T02:30:47;100319.00;;;0.29;100.00
77662;BME280;69666;52.136;5.424;2024-01-15T02:33:16;100309.88;;;0.32;100.00
77662;BME280;69666;52.136;5.424;2024-01-15T02:35:46;100312.38;;;0.33;100.00
77662;BME280;69666;52.136;5.424;2024-01-15T02:38:18;100316.69;;;0.35;100.00
77662;BME280;69666;52.136;5.424;2024-01-15T02:40:49;100315.69;;;0.36;100.00
77662;BME280;69666;52.136;5.424;2024-01-15T02:43:19;100307.75;;;0.36;100.00
77662;BME280;69666;52.136;5.424;2024-01-15T02:45:48;100313.72;;;0.38;100.00
77662;BME280;69666;52.136;5.424;2024-01-15T02:48:18;100300.47;;;0.38;100.00
77662;BME280;69666;52.136;5.424;2024-01-15T02:50:48;100295.00;;;0.39;100.00
77662;BME280;69666;52.136;5.424;2024-01-15T02:53:17;100304.44;;;0.42;100.00
77662;BME280;69666;52.136;5.424;2024-01-15T02:55:47;100298.81;;;0.45;100.00
77662;BME280;69666;52.136;5.424;2024-01-15T02:58:16;100299.50;;;0.47;100.00
77662;BME280;69666;52.136;5.424;2024-01-15T03:00:45;100302.97;;;0.47;100.00
77662;BME280;69666;52.136;5.424;2024-01-15T03:03:15;100302.16;;;0.47;100.00
77662;BME280;69666;52.136;5.424;2024-01-15T03:05:45;100290.72;;;0.46;100.00
77662;BME280;69666;52.136;5.424;2024-01-15T03:08:15;100297.16;;;0.44;100.00
77662;BME280;69666;52.136;5.424;2024-01-15T03:10:45;100290.22;;;0.43;100.00
77662;BME280;69666;52.136;5.424;2024-01-15T03:13:14;100288.56;;;0.42;100.00
77662;BME280;69666;52.136;5.424;2024-01-15T03:15:44;100291.53;;;0.39;100.00
77662;BME280;69666;52.136;5.424;2024-01-15T03:18:13;100285.56;;;0.37;100.00
77662;BME280;69666;52.136;5.424;2024-01-15T03:20:43;100293.19;;;0.40;100.00
77662;BME280;69666;52.136;5.424;2024-01-15T03:23:12;100289.88;;;0.38;100.00
77662;BME280;69666;52.136;5.424;2024-01-15T03:25:42;100289.88;;;0.38;100.00
77662;BME280;69666;52.136;5.424;2024-01-15T03:28:12;100290.53;;;0.40;100.00
77662;BME280;69666;52.136;5.424;2024-01-15T03:30:42;100299.47;;;0.39;100.00
77662;BME280;69666;52.136;5.424;2024-01-15T03:33:11;100305.59;;;0.39;100.00
77662;BME280;69666;52.136;5.424;2024-01-15T03:35:41;100297.50;;;0.41;100.00
77662;BME280;69666;52.136;5.424;2024-01-15T03:38:10;100320.69;;;0.39;100.00
77662;BME280;69666;52.136;5.424;2024-01-15T03:40:40;100311.41;;;0.43;100.00
77662;BME280;69666;52.136;5.424;2024-01-15T03:43:10;100325.16;;;0.46;100.00
77662;BME280;69666;52.136;5.424;2024-01-15T03:45:39;100319.38;;;0.51;100.00
77662;BME280;69666;52.136;5.424;2024-01-15T03:48:09;100310.91;;;0.55;100.00
77662;BME280;69666;52.136;5.424;2024-01-15T03:50:38;100305.78;;;0.62;100.00
77662;BME280;69666;52.136;5.424;2024-01-15T03:53:07;100286.91;;;0.65;100.00
77662;BME280;69666;52.136;5.424;2024-01-15T03:55:37;100278.13;;;0.73;100.00
77662;BME280;69666;52.136;5.424;2024-01-15T03:58:06;100274.47;;;0.74;100.00
77662;BME280;69666;52.136;5.424;2024-01-15T04:00:36;100271.66;;;0.75;100.00
77662;BME280;69666;52.136;5.424;2024-01-15T04:03:06;100267.34;;;0.74;100.00
77662;BME280;69666;52.136;5.424;2024-01-15T04:05:35;100267.34;;;0.74;100.00
77662;BME280;69666;52.136;5.424;2024-01-15T04:08:05;100263.72;;;0.67;100.00
77662;BME280;69666;52.136;5.424;2024-01-15T04:10:34;100247.47;;;0.62;100.00
77662;BME280;69666;52.136;5.424;2024-01-15T04:13:04;100260.22;;;0.58;100.00
77662;BME280;69666;52.136;5.424;2024-01-15T04:15:33;100250.94;;;0.54;100.00
77662;BME280;69666;52.136;5.424;2024-01-15T04:18:03;100261.06;;;0.51;100.00
77662;BME280;69666;52.136;5.424;2024-01-15T04:20:33;100249.31;;;0.45;100.00
77662;BME280;69666;52.136;5.424;2024-01-15T04:23:02;100249.78;;;0.41;100.00
77662;BME280;69666;52.136;5.424;2024-01-15T04:25:32;100250.13;;;0.38;100.00
77662;BME280;69666;52.136;5.424;2024-01-15T04:28:01;100248.78;;;0.33;100.00
77662;BME280;69666;52.136;5.424;2024-01-15T04:30:31;100236.03;;;0.29;100.00
77662;BME280;69666;52.136;5.424;2024-01-15T04:33:00;100244.13;;;0.27;100.00
77662;BME280;69666;52.136;5.424;2024-01-15T04:35:33;100246.44;;;0.22;100.00
77662;BME280;69666;52.136;5.424;2024-01-15T04:38:03;100238.16;;;0.17;100.00
77662;BME280;69666;52.136;5.424;2024-01-15T04:40:32;100236.00;;;0.13;100.00
77662;BME280;69666;52.136;5.424;2024-01-15T04:43:02;100229.88;;;0.12;100.00
77662;BME280;69666;52.136;5.424;2024-01-15T04:45:31;100239.47;;;0.13;100.00
77662;BME280;69666;52.136;5.424;2024-01-15T04:48:01;100222.09;;;0.11;100.00
77662;BME280;69666;52.136;5.424;2024-01-15T04:50:31;100219.75;;;0.08;100.00
77662;BME280;69666;52.136;5.424;2024-01-15T04:53:00;100217.94;;;0.08;100.00
77662;BME280;69666;52.136;5.424;2024-01-15T04:55:30;100215.63;;;0.05;100.00
77662;BME280;69666;52.136;5.424;2024-01-15T04:57:59;100225.38;;;0.05;100.00
77662;BME280;69666;52.136;5.424;2024-01-15T05:00:29;100232.00;;;0.09;100.00
77662;BME280;69666;52.136;5.424;2024-01-15T05:02:58;100230.53;;;0.14;100.00
77662;BME280;69666;52.136;5.424;2024-01-15T05:05:27;100228.91;;;0.21;100.00
77662;BME280;69666;52.136;5.424;2024-01-15T05:07:57;100221.47;;;0.25;100.00
77662;BME280;69666;52.136;5.424;2024-01-15T05:10:27;100222.13;;;0.27;100.00
77662;BME280;69666;52.136;5.424;2024-01-15T05:12:56;100224.28;;;0.31;100.00
77662;BME280;69666;52.136;5.424;2024-01-15T05:15:26;100209.22;;;0.32;100.00
77662;BME280;69666;52.136;5.424;2024-01-15T05:17:56;100211.69;;;0.33;100.00
77662;BME280;69666;52.136;5.424;2024-01-15T05:20:25;100201.09;;;0.33;100.00
77662;BME280;69666;52.136;5.424;2024-01-15T05:22:55;100210.03;;;0.32;100.00
77662;BME280;69666;52.136;5.424;2024-01-15T05:25:24;100209.72;;;0.36;100.00
77662;BME280;69666;52.136;5.424;2024-01-15T05:27:53;100202.44;;;0.38;100.00
77662;BME280;69666;52.136;5.424;2024-01-15T05:30:23;100206.72;;;0.39;100.00
77662;BME280;69666;52.136;5.424;2024-01-15T05:32:53;100205.06;;;0.38;100.00
77662;BME280;69666;52.136;5.424;2024-01-15T05:35:22;100213.53;;;0.41;100.00
77662;BME280;69666;52.136;5.424;2024-01-15T05:37:52;100214.19;;;0.43;100.00
77662;BME280;69666;52.136;5.424;2024-01-15T05:40:21;100208.72;;;0.45;100.00
77662;BME280;69666;52.136;5.424;2024-01-15T05:42:50;100217.50;;;0.45;100.00
77662;BME280;69666;52.136;5.424;2024-01-15T05:45:20;100213.69;;;0.48;100.00
77662;BME280;69666;52.136;5.424;2024-01-15T05:47:49;100212.03;;;0.47;100.00
77662;BME280;69666;52.136;5.424;2024-01-15T05:50:19;100215.34;;;0.49;100.00
77662;BME280;69666;52.136;5.424;2024-01-15T05:52:48;100221.94;;;0.53;100.00
77662;BME280;69666;52.136;5.424;2024-01-15T05:55:18;100213.84;;;0.54;100.00
77662;BME280;69666;52.136;5.424;2024-01-15T05:57:48;100224.94;;;0.58;100.00
77662;BME280;69666;52.136;5.424;2024-01-15T06:00:18;100225.59;;;0.60;100.00
77662;BME280;69666;52.136;5.424;2024-01-15T06:02:47;100227.91;;;0.63;100.00
77662;BME280;69666;52.136;5.424;2024-01-15T06:05:17;100227.41;;;0.68;100.00
77662;BME280;69666;52.136;5.424;2024-01-15T06:07:46;100232.22;;;0.72;100.00
77662;BME280;69666;52.136;5.424;2024-01-15T06:10:16;100236.03;;;0.78;100.00
77662;BME280;69666;52.136;5.424;2024-01-15T06:12:45;100247.81;;;0.75;100.00
77662;BME280;69666;52.136;5.424;2024-01-15T06:15:15;100223.28;;;0.73;100.00
77662;BME280;69666;52.136;5.424;2024-01-15T06:17:44;100222.94;;;0.76;100.00
77662;BME280;69666;52.136;5.424;2024-01-15T06:20:14;100213.16;;;0.77;100.00
77662;BME280;69666;52.136;5.424;2024-01-15T06:22:43;100212.00;;;0.79;100.00
77662;BME280;69666;52.136;5.424;2024-01-15T06:25:13;100211.19;;;0.79;100.00
77662;BME280;69666;52.136;5.424;2024-01-15T06:27:42;100207.69;;;0.78;100.00
77662;BME280;69666;52.136;5.424;2024-01-15T06:30:12;100209.69;;;0.76;100.00
77662;BME280;69666;52.136;5.424;2024-01-15T06:32:42;100209.19;;;0.73;100.00
77662;BME280;69666;52.136;5.424;2024-01-15T06:35:11;100221.63;;;0.72;100.00
77662;BME280;69666;52.136;5.424;2024-01-15T06:37:40;100205.72;;;0.72;100.00
77662;BME280;69666;52.136;5.424;2024-01-15T06:40:10;100205.72;;;0.72;100.00
77662;BME280;69666;52.136;5.424;2024-01-15T06:42:40;100205.72;;;0.72;100.00
77662;BME280;69666;52.136;5.424;2024-01-15T06:45:10;100204.38;;;0.68;100.00
77662;BME280;69666;52.136;5.424;2024-01-15T06:47:39;100204.38;;;0.68;100.00
77662;BME280;69666;52.136;5.424;2024-01-15T06:50:10;100200.59;;;0.71;100.00
77662;BME280;69666;52.136;5.424;2024-01-15T06:52:39;100196.09;;;0.71;100.00
77662;BME280;69666;52.136;5.424;2024-01-15T06:55:09;100197.09;;;0.70;100.00
77662;BME280;69666;52.136;5.424;2024-01-15T06:57:38;100188.00;;;0.64;100.00
77662;BME280;69666;52.136;5.424;2024-01-15T07:00:08;100183.34;;;0.58;100.00
77662;BME280;69666;52.136;5.424;2024-01-15T07:02:38;100192.78;;;0.53;100.00
77662;BME280;69666;52.136;5.424;2024-01-15T07:05:08;100190.34;;;0.51;100.00
77662;BME280;69666;52.136;5.424;2024-01-15T07:07:38;100193.16;;;0.50;100.00
77662;BME280;69666;52.136;5.424;2024-01-15T07:10:07;100191.34;;;0.50;100.00
77662;BME280;69666;52.136;5.424;2024-01-15T07:12:37;100191.97;;;0.52;100.00
77662;BME280;69666;52.136;5.424;2024-01-15T07:15:07;100188.84;;;0.49;100.00
77662;BME280;69666;52.136;5.424;2024-01-15T07:17:37;100208.06;;;0.51;100.00
77662;BME280;69666;52.136;5.424;2024-01-15T07:20:08;100229.75;;;0.54;100.00
77662;BME280;69666;52.136;5.424;2024-01-15T07:22:38;100249.78;;;0.57;100.00
77662;BME280;69666;52.136;5.424;2024-01-15T07:25:08;100237.34;;;0.57;100.00
77662;BME280;69666;52.136;5.424;2024-01-15T07:27:37;100223.28;;;0.57;100.00
77662;BME280;69666;52.136;5.424;2024-01-15T07:30:07;100212.69;;;0.57;100.00
77662;BME280;69666;52.136;5.424;2024-01-15T07:32:37;100213.66;;;0.56;100.00
77662;BME280;69666;52.136;5.424;2024-01-15T07:35:07;100213.50;;;0.57;100.00
77662;BME280;69666;52.136;5.424;2024-01-15T07:37:37;100211.84;;;0.56;100.00
77662;BME280;69666;52.136;5.424;2024-01-15T07:40:06;100211.03;;;0.56;100.00
77662;BME280;69666;52.136;5.424;2024-01-15T07:42:36;100200.75;;;0.53;100.00
77662;BME280;69666;52.136;5.424;2024-01-15T07:45:11;100200.41;;;0.56;100.00
77662;BME280;69666;52.136;5.424;2024-01-15T07:47:40;100204.06;;;0.55;100.00
77662;BME280;69666;52.136;5.424;2024-01-15T07:50:10;100224.94;;;0.58;100.00
77662;BME280;69666;52.136;5.424;2024-01-15T07:52:41;100228.25;;;0.60;100.00
77662;BME280;69666;52.136;5.424;2024-01-15T07:55:10;100224.59;;;0.61;100.00
77662;BME280;69666;52.136;5.424;2024-01-15T07:57:40;100212.00;;;0.63;100.00
77662;BME280;69666;52.136;5.424;2024-01-15T08:00:09;100221.47;;;0.65;100.00
77662;BME280;69666;52.136;5.424;2024-01-15T08:02:39;100223.44;;;0.63;100.00
77662;BME280;69666;52.136;5.424;2024-01-15T08:05:09;100224.28;;;0.64;100.00
77662;BME280;69666;52.136;5.424;2024-01-15T08:07:38;100225.94;;;0.65;100.00
77662;BME280;69666;52.136;5.424;2024-01-15T08:10:08;100220.63;;;0.65;100.00
77662;BME280;69666;52.136;5.424;2024-01-15T08:12:37;100208.38;;;0.64;100.00
77662;BME280;69666;52.136;5.424;2024-01-15T08:15:07;100197.75;;;0.64;100.00
77662;BME280;69666;52.136;5.424;2024-01-15T08:17:36;100195.13;;;0.64;100.00
77662;BME280;69666;52.136;5.424;2024-01-15T08:20:06;100201.41;;;0.63;100.00
77662;BME280;69666;52.136;5.424;2024-01-15T08:22:36;100199.75;;;0.62;100.00
77662;BME280;69666;52.136;5.424;2024-01-15T08:25:06;100224.59;;;0.61;100.00
77662;BME280;69666;52.136;5.424;2024-01-15T08:27:36;100212.34;;;0.60;100.00
77662;BME280;69666;52.136;5.424;2024-01-15T08:30:06;100213.50;;;0.57;100.00
77662;BME280;69666;52.136;5.424;2024-01-15T08:32:35;100230.75;;;0.61;100.00
77662;BME280;69666;52.136;5.424;2024-01-15T08:35:09;100238.53;;;0.63;100.00
77662;BME280;69666;52.136;5.424;2024-01-15T08:37:38;100217.31;;;0.63;100.00
77662;BME280;69666;52.136;5.424;2024-01-15T08:40:08;100213.66;;;0.64;100.00
77662;BME280;69666;52.136;5.424;2024-01-15T08:42:37;100207.69;;;0.70;100.00
77662;BME280;69666;52.136;5.424;2024-01-15T08:45:07;100201.09;;;0.66;100.00
77662;BME280;69666;52.136;5.424;2024-01-15T08:47:36;100211.03;;;0.72;100.00
77662;BME280;69666;52.136;5.424;2024-01-15T08:50:07;100212.50;;;0.75;100.00
77662;BME280;69666;52.136;5.424;2024-01-15T08:52:40;100210.69;;;0.75;100.00
77662;BME280;69666;52.136;5.424;2024-01-15T08:55:09;100211.19;;;0.79;100.00
77662;BME280;69666;52.136;5.424;2024-01-15T08:57:39;100216.66;;;0.85;100.00
77662;BME280;69666;52.136;5.424;2024-01-15T09:00:08;100214.66;;;0.87;100.00
77662;BME280;69666;52.136;5.424;2024-01-15T09:02:38;100216.81;;;0.92;100.00
77662;BME280;69666;52.136;5.424;2024-01-15T09:05:08;100226.25;;;0.94;100.00
77662;BME280;69666;52.136;5.424;2024-01-15T09:07:37;100224.25;;;0.96;100.00
77662;BME280;69666;52.136;5.424;2024-01-15T09:10:07;100235.88;;;0.95;100.00
77662;BME280;69666;52.136;5.424;2024-01-15T09:12:36;100243.16;;;1.02;100.00
77662;BME280;69666;52.136;5.424;2024-01-15T09:15:07;100248.47;;;1.02;100.00
77662;BME280;69666;52.136;5.424;2024-01-15T09:17:36;100238.13;;;1.07;100.00
77662;BME280;69666;52.136;5.424;2024-01-15T09:20:07;100226.88;;;1.05;100.00
77662;BME280;69666;52.136;5.424;2024-01-15T09:22:40;100206.53;;;0.97;100.00
77662;BME280;69666;52.136;5.424;2024-01-15T09:25:10;100219.44;;;1.00;100.00
77662;BME280;69666;52.136;5.424;2024-01-15T09:27:40;100226.88;;;1.05;100.00
77662;BME280;69666;52.136;5.424;2024-01-15T09:30:09;100219.41;;;1.08;100.00
77662;BME280;69666;52.136;5.424;2024-01-15T09:32:39;100220.06;;;1.10;100.00
77662;BME280;69666;52.136;5.424;2024-01-15T09:35:09;100230.34;;;1.05;100.00
77662;BME280;69666;52.136;5.424;2024-01-15T09:37:39;100227.69;;;1.05;100.00
77662;BME280;69666;52.136;5.424;2024-01-15T09:40:15;100228.53;;;1.06;100.00
77662;BME280;69666;52.136;5.424;2024-01-15T09:42:46;100222.38;;;1.05;100.00
77662;BME280;69666;52.136;5.424;2024-01-15T09:45:16;100215.25;;;1.14;100.00
77662;BME280;69666;52.136;5.424;2024-01-15T09:47:46;100224.47;;;1.42;100.00
77662;BME280;69666;52.136;5.424;2024-01-15T09:50:16;100218.88;;;1.68;100.00
77662;BME280;69666;52.136;5.424;2024-01-15T09:52:46;100211.03;;;1.75;100.00
77662;BME280;69666;52.136;5.424;2024-01-15T09:55:15;100220.31;;;1.79;100.00
77662;BME280;69666;52.136;5.424;2024-01-15T09:57:45;100217.19;;;1.75;100.00
77662;BME280;69666;52.136;5.424;2024-01-15T10:00:18;100224.00;;;1.70;100.00
77662;BME280;69666;52.136;5.424;2024-01-15T10:02:47;100231.50;;;1.66;100.00
77662;BME280;69666;52.136;5.424;2024-01-15T10:05:17;100220.56;;;1.61;100.00
77662;BME280;69666;52.136;5.424;2024-01-15T10:07:48;100232.50;;;1.65;100.00
77662;BME280;69666;52.136;5.424;2024-01-15T10:10:18;100237.25;;;1.78;100.00
77662;BME280;69666;52.136;5.424;2024-01-15T10:12:48;100244.81;;;2.20;100.00
77662;BME280;69666;52.136;5.424;2024-01-15T10:15:22;100216.72;;;2.48;100.00
77662;BME280;69666;52.136;5.424;2024-01-15T10:17:52;100218.56;;;2.62;100.00
77662;BME280;69666;52.136;5.424;2024-01-15T10:20:22;100214.09;;;2.63;100.00
77662;BME280;69666;52.136;5.424;2024-01-15T10:22:51;100234.44;;;2.56;100.00
77662;BME280;69666;52.136;5.424;2024-01-15T10:25:20;100236.75;;;2.59;100.00
77662;BME280;69666;52.136;5.424;2024-01-15T10:28:00;100232.09;;;2.76;100.00
77662;BME280;69666;52.136;5.424;2024-01-15T10:30:32;100241.38;;;2.80;100.00
77662;BME280;69666;52.136;5.424;2024-01-15T10:33:05;100240.44;;;2.73;100.00
77662;BME280;69666;52.136;5.424;2024-01-15T10:35:35;100233.09;;;2.60;100.00
77662;BME280;69666;52.136;5.424;2024-01-15T10:38:06;100234.03;;;2.44;100.00
77662;BME280;69666;52.136;5.424;2024-01-15T10:40:35;100239.03;;;2.39;100.00
77662;BME280;69666;52.136;5.424;2024-01-15T10:43:05;100231.00;;;2.24;100.00
77662;BME280;69666;52.136;5.424;2024-01-15T10:45:34;100235.06;;;2.12;100.00
77662;BME280;69666;52.136;5.424;2024-01-15T10:48:04;100235.00;;;2.20;100.00
77662;BME280;69666;52.136;5.424;2024-01-15T10:50:34;100228.53;;;2.46;100.00
77662;BME280;69666;52.136;5.424;2024-01-15T10:53:05;100235.94;;;2.73;100.00
77662;BME280;69666;52.136;5.424;2024-01-15T10:55:35;100233.88;;;2.83;100.00
77662;BME280;69666;52.136;5.424;2024-01-15T10:58:08;100240.13;;;2.90;100.00
77662;BME280;69666;52.136;5.424;2024-01-15T11:00:38;100242.63;;;3.07;100.00
77662;BME280;69666;52.136;5.424;2024-01-15T11:03:08;100257.25;;;3.11;100.00
77662;BME280;69666;52.136;5.424;2024-01-15T11:05:45;100254.19;;;3.14;100.00
77662;BME280;69666;52.136;5.424;2024-01-15T11:08:17;100257.03;;;3.12;99.81
77662;BME280;69666;52.136;5.424;2024-01-15T11:10:51;100261.09;;;3.08;99.90
77662;BME280;69666;52.136;5.424;2024-01-15T11:13:40;100260.16;;;3.01;99.60
77662;BME280;69666;52.136;5.424;2024-01-15T11:16:13;100265.53;;;2.93;100.00
77662;BME280;69666;52.136;5.424;2024-01-15T11:21:28;100269.03;;;2.71;100.00
77662;BME280;69666;52.136;5.424;2024-01-15T11:24:00;100274.72;;;2.67;100.00
77662;BME280;69666;52.136;5.424;2024-01-15T11:32:09;100269.72;;;2.50;100.00
77662;BME280;69666;52.136;5.424;2024-01-15T11:37:22;100260.03;;;2.57;100.00
77662;BME280;69666;52.136;5.424;2024-01-15T11:40:09;100259.88;;;2.73;100.00
77662;BME280;69666;52.136;5.424;2024-01-15T11:42:40;100260.19;;;2.78;100.00
77662;BME280;69666;52.136;5.424;2024-01-15T11:45:09;100267.50;;;2.76;100.00
77662;BME280;69666;52.136;5.424;2024-01-15T11:50:14;100265.19;;;2.73;100.00
77662;BME280;69666;52.136;5.424;2024-01-15T11:53:03;100274.47;;;2.77;100.00
77662;BME280;69666;52.136;5.424;2024-01-15T11:55:39;100269.81;;;2.79;100.00
77662;BME280;69666;52.136;5.424;2024-01-15T11:58:10;100269.16;;;2.77;100.00
77662;BME280;69666;52.136;5.424;2024-01-15T12:00:48;100267.50;;;2.76;100.00
77662;BME280;69666;52.136;5.424;2024-01-15T12:03:21;100254.84;;;2.78;100.00
77662;BME280;69666;52.136;5.424;2024-01-15T12:05:53;100270.75;;;2.86;100.00
77662;BME280;69666;52.136;5.424;2024-01-15T12:08:23;100272.69;;;2.92;100.00
77662;BME280;69666;52.136;5.424;2024-01-15T12:10:54;100287.59;;;3.02;100.00
77662;BME280;69666;52.136;5.424;2024-01-15T12:13:25;100291.38;;;3.07;100.00
77662;BME280;69666;52.136;5.424;2024-01-15T12:15:55;100288.53;;;3.09;100.00
77662;BME280;69666;52.136;5.424;2024-01-15T12:18:26;100297.53;;;3.08;100.00
77662;BME280;69666;52.136;5.424;2024-01-15T12:20:56;100310.72;;;3.01;100.00
77662;BME280;69666;52.136;5.424;2024-01-15T12:23:27;100313.91;;;2.96;100.00
77662;BME280;69666;52.136;5.424;2024-01-15T12:25:56;100313.31;;;2.86;99.87
77662;BME280;69666;52.136;5.424;2024-01-15T12:28:27;100319.34;;;2.80;99.89
77662;BME280;69666;52.136;5.424;2024-01-15T12:30:57;100321.06;;;2.73;100.00
77662;BME280;69666;52.136;5.424;2024-01-15T12:33:28;100313.25;;;2.72;100.00
77662;BME280;69666;52.136;5.424;2024-01-15T12:35:58;100320.09;;;2.66;100.00
77662;BME280;69666;52.136;5.424;2024-01-15T12:38:28;100329.09;;;2.65;100.00
77662;BME280;69666;52.136;5.424;2024-01-15T12:40:59;100319.53;;;2.56;100.00
77662;BME280;69666;52.136;5.424;2024-01-15T12:43:29;100337.50;;;2.54;100.00
77662;BME280;69666;52.136;5.424;2024-01-15T12:45:58;100326.59;;;2.41;100.00
77662;BME280;69666;52.136;5.424;2024-01-15T12:48:28;100321.84;;;2.28;100.00
77662;BME280;69666;52.136;5.424;2024-01-15T12:50:57;100316.06;;;2.24;100.00
77662;BME280;69666;52.136;5.424;2024-01-15T12:53:27;100328.69;;;2.22;100.00
77662;BME280;69666;52.136;5.424;2024-01-15T12:55:56;100323.06;;;2.17;100.00
77662;BME280;69666;52.136;5.424;2024-01-15T12:58:25;100327.72;;;2.15;100.00
77662;BME280;69666;52.136;5.424;2024-01-15T13:00:55;100320.41;;;2.17;100.00
77662;BME280;69666;52.136;5.424;2024-01-15T13:03:25;100318.06;;;2.22;100.00
77662;BME280;69666;52.136;5.424;2024-01-15T13:05:55;100317.72;;;2.25;100.00
77662;BME280;69666;52.136;5.424;2024-01-15T13:08:24;100321.38;;;2.24;100.00
77662;BME280;69666;52.136;5.424;2024-01-15T13:10:57;100323.72;;;2.19;100.00
77662;BME280;69666;52.136;5.424;2024-01-15T13:13:26;100326.03;;;2.22;100.00
77662;BME280;69666;52.136;5.424;2024-01-15T13:15:55;100336.00;;;2.20;100.00
77662;BME280;69666;52.136;5.424;2024-01-15T13:18:25;100341.66;;;2.17;100.00